Norris Rancho Marino Reserve, California Weather observations

Data are for 10 minute period ending at time listed.
 Day   Time   Solar   Ave.   Ave.  Ave.  Vector  Max.   Baro.   Total    
  of    of     Rad.   Air    Rel.  Wind   Wind   Wind  Press.  Precip.   
Year   Day            Temp.  Hum.  Speed  Dir.   Gust                    
2015   (PST)  Kw/m2    F      %     mph   deg.    mph    mb.     in.     
-------------------------------------------------------------------------
 187    9:30   0.48   63.0    82   11.8   288    17.8   1015.6    0.00 
 187    9:40   0.50   63.6    81   12.3   287    16.4   1015.5    0.00 
 187    9:50   0.53   63.2    81   12.3   291    17.2   1015.5    0.00 
 187   10:00   0.69   63.8    80   11.1   295    15.1   1015.4    0.00 
 187   10:10   0.77   64.5    78   10.7   292    15.3   1015.4    0.00 
 187   10:20   0.82   65.2    76    9.9   289    13.4   1015.4    0.00 
 187   10:30   0.83   64.5    78   11.7   285    15.0   1015.2    0.00 
 187   10:40   0.85   65.2    76   11.9   288    16.5   1015.1    0.00 
 187   10:50   0.86   66.0    75   11.6   288    16.3   1015.1    0.00 
 187   11:00   0.87   65.6    75   13.1   288    17.2   1015.0    0.00 
 187   11:10   0.89   65.8    74   12.2   292    16.7   1014.9    0.00 
 187   11:20   0.89   65.3    76   12.3   285    17.3   1014.9    0.00 
 187   11:30   0.90   65.2    76   12.6   285    16.1   1014.9    0.00 
 187   11:40   0.90   65.6    76   11.0   290    15.8   1014.9    0.00 
 187   11:50   0.91   65.3    76   11.7   292    15.6   1014.9    0.00 
 187   12:00   0.88   65.1    77   11.5   291    15.5   1014.9    0.00 
 187   12:10   0.88   65.0    77   11.8   294    15.0   1014.9    0.00 
 187   12:20   0.91   65.5    76   13.0   294    17.2   1014.9    0.00 
 187   12:30   0.92   65.1    77   13.2   294    16.6   1014.8    0.00 
 187   12:40   0.91   65.2    76   12.6   294    16.7   1014.7    0.00 
 187   12:50   0.91   65.8    75   12.1   294    15.5   1014.7    0.00 
 187   13:00   0.91   65.3    76   12.1   292    15.9   1014.6    0.00 
 187   13:10   0.90   65.4    76   11.7   294    14.5   1014.5    0.00 
 187   13:20   0.90   65.3    77   13.4   295    16.9   1014.3    0.00 
 187   13:30   0.89   65.1    78   12.5   294    16.4   1014.1    0.00 
 187   13:40   0.88   65.3    77   11.7   294    17.8   1014.0    0.00 
 187   13:50   0.83   65.2    77   12.0   293    16.7   1013.9    0.00 
 187   14:00   0.85   65.2    77   13.3   293    19.3   1013.8    0.00 
 187   14:10   0.85   65.3    77   12.1   295    15.8   1013.7    0.00 
 187   14:20   0.82   65.2    77   12.8   295    18.0   1013.6    0.00 
 187   14:30   0.81   65.0    78   13.5   294    18.3   1013.5    0.00 
 187   14:40   0.79   65.6    76   13.9   294    18.0   1013.3    0.00 
 187   14:50   0.76   65.1    76   14.7   294    19.9   1013.3    0.00 
 187   15:00   0.74   64.7    76   14.8   294    18.9   1013.2    0.00 
 187   15:10   0.72   64.6    77   14.3   293    19.9   1013.1    0.00 
 187   15:20   0.69   64.4    77   14.8   294    19.1   1012.9    0.00 
 187   15:30   0.67   64.2    77   14.0   293    18.5   1012.8    0.00 
 187   15:40   0.64   64.3    77   13.0   293    17.2   1012.7    0.00 
 187   15:50   0.61   64.1    78   12.7   294    18.0   1012.6    0.00 
 187   16:00   0.59   64.0    78   12.4   294    16.0   1012.5    0.00 
 187   16:10   0.56   63.8    79   11.8   295    15.6   1012.5    0.00 
 187   16:20   0.53   63.7    80   11.2   295    15.3   1012.5    0.00 
 187   16:30   0.50   63.8    80   11.8   296    15.5   1012.5    0.00 
 187   16:40   0.47   63.5    81   11.8   298    16.4   1012.5    0.00 
 187   16:50   0.44   63.5    81   11.1   298    13.9   1012.5    0.00 
 187   17:00   0.41   63.2    82   10.1   296    13.7   1012.4    0.00 
 187   17:10   0.38   63.2    82    9.7   293    13.5   1012.3    0.00 
 187   17:20   0.34   63.0    83    8.2   295    11.3   1012.3    0.00 
 187   17:30   0.32   63.1    84    7.4   294    10.7   1012.3    0.00 
 187   17:40   0.29   62.8    84    7.8   293    10.9   1012.2    0.00 
 187   17:50   0.25   62.6    85    7.4   295    10.0   1012.2    0.00 
 187   18:00   0.22   62.6    85    7.0   295    12.9   1012.2    0.00 
 187   18:10   0.19   62.7    84    7.3   294    10.5   1012.2    0.00 
 187   18:20   0.17   62.5    85    6.0   296     8.8   1012.3    0.00 
 187   18:30   0.13   62.3    85    6.3   298     8.9   1012.3    0.00 
 187   18:40   0.10   62.0    86    6.6   299    10.3   1012.4    0.00 
 187   18:50   0.09   61.8    87    6.3   298     9.8   1012.4    0.00 
 187   19:00   0.06   61.4    87    5.7   300     9.1   1012.5    0.00 
 187   19:10   0.03   61.1    88    4.7   305     7.5   1012.6    0.00 
 187   19:20   0.02   60.9    88    4.5   307     7.7   1012.6    0.00 
 187   19:30   0.01   60.7    88    6.0   305     9.1   1012.5    0.00 
 187   19:40   0.00   60.4    89    4.2   307     7.2   1012.5    0.00 
 187   19:50   0.00   60.1    90    2.8   292     5.3   1012.5    0.00 
 187   20:00   0.00   59.8    90    2.0   294     5.2   1012.6    0.00 
 187   20:10   0.00   59.5    90    2.0    91     3.5   1012.6    0.00 
 187   20:20   0.00   59.4    90    1.2    67     3.1   1012.8    0.00 
 187   20:30   0.00   59.0    90    1.9    62     2.9   1012.9    0.00 
 187   20:40   0.00   58.8    90    1.7    75     2.9   1012.9    0.00 
 187   20:50   0.00   58.9    90    1.8   120     3.2   1013.1    0.00 
 187   21:00   0.00   58.9    90    3.0   122     4.1   1013.2    0.00 
 187   21:10   0.00   59.2    90    4.8   112     6.1   1013.3    0.00 
 187   21:20   0.00   59.5    90    5.6   113     6.9   1013.3    0.00 
 187   21:30   0.00   59.6    90    5.1   112     9.5   1013.3    0.00 
 187   21:40   0.00   58.5    90    1.0    29     2.4   1013.4    0.00 
 187   21:50   0.00   58.8    90    0.7    27     1.6   1013.4    0.00 
 187   22:00   0.00   59.1    90    1.4    71     2.7   1013.4    0.00 
 187   22:10   0.00   58.7    90    1.0    69     2.1   1013.4    0.00 
 187   22:20   0.00   58.1    90    1.6   104     2.8   1013.5    0.00 
 187   22:30   0.00   58.0    91    2.2   104     3.7   1013.5    0.00 
 187   22:40   0.00   57.8    91    1.9   105     2.9   1013.4    0.00 
 187   22:50   0.00   57.9    91    2.5   122     3.8   1013.4    0.00 
 187   23:00   0.00   58.1    92    4.0   108     6.0   1013.3    0.00 
 187   23:10   0.00   59.1    92    4.8   106     6.7   1013.2    0.00 
 187   23:20   0.00   59.0    92    3.9   108     5.6   1013.3    0.00 
 187   23:30   0.00   58.3    92    4.1    80     7.4   1013.2    0.00 
 187   23:40   0.00   58.7    92    4.0    93     7.2   1013.1    0.00 
 187   23:50   0.00   57.8    91    2.5    75     3.6   1013.1    0.00 
 188    0:00   0.00   58.1    92    2.4    79     4.1   1013.1    0.00 
 188    0:10   0.00   57.8    92    0.7    58     2.1   1013.1    0.00 
 188    0:20   0.00   57.6    92    1.5    27     2.3   1013.1    0.00 
 188    0:30   0.00   57.4    92    1.7    31     2.6   1013.0    0.00 
 188    0:40   0.00   57.4    93    1.1    34     2.6   1013.0    0.00 
 188    0:50   0.00   57.1    93    1.4    40     3.0   1013.0    0.00 
 188    1:00   0.00   56.7    93    1.5    43     3.1   1013.0    0.00 
 188    1:10   0.00   56.7    93    1.9    47     3.4   1013.0    0.00 
 188    1:20   0.00   56.7    93    2.3    51     3.0   1012.9    0.00 
 188    1:30   0.00   57.2    94    1.9    40     2.6   1012.8    0.00 
 188    1:40   0.00   56.9    94    1.8    69     3.4   1012.8    0.00 
 188    1:50   0.00   57.0    94    1.2    52     2.9   1012.9    0.00 
 188    2:00   0.00   56.7    94    1.7    44     2.3   1012.8    0.00 
 188    2:10   0.00   56.7    94    1.7    40     3.1   1012.9    0.00 
 188    2:20   0.00   56.6    94    2.5    47     3.4   1012.9    0.00 
 188    2:30   0.00   56.8    94    2.2    49     3.1   1012.9    0.00 
 188    2:40   0.00   56.5    95    1.9    52     2.9   1012.9    0.00 
 188    2:50   0.00   56.5    95    1.3    71     2.6   1013.1    0.00 
 188    3:00   0.00   56.3    95    1.3    52     2.0   1013.1    0.00 
 188    3:10   0.00   56.5    95    1.8    67     2.6   1013.0    0.00 
 188    3:20   0.00   57.1    95    1.4    67     2.4   1012.9    0.00 
 188    3:30   0.00   56.9    95    1.7    63     2.3   1012.9    0.00 
 188    3:40   0.00   56.7    95    1.6    70     2.6   1012.9    0.00 
 188    3:50   0.00   56.5    95    1.8    64     3.1   1012.9    0.00 
 188    4:00   0.00   57.0    95    1.0    15     1.8   1013.1    0.00 
 188    4:10   0.00   56.9    95    1.7   340     2.6   1013.2    0.00 
 188    4:20   0.00   56.4    95    2.5    11     3.8   1013.2    0.00 
 188    4:30   0.00   56.7    95    2.5    19     4.0   1013.2    0.00 
 188    4:40   0.00   56.5    95    2.3    27     3.4   1013.2    0.00 
 188    4:50   0.00   56.6    95    2.3    53     3.0   1013.2    0.00 
 188    5:00   0.01   56.7    96    2.0    33     2.9   1013.2    0.00 
 188    5:10   0.01   56.4    95    1.6    24     2.7   1013.3    0.00 
 188    5:20   0.02   56.3    95    3.2    55     4.9   1013.5    0.00 
 188    5:30   0.03   57.2    96    2.9    35     3.8   1013.5    0.00 
 188    5:40   0.04   59.4    96    2.8   323     4.4   1013.6    0.00 
 188    5:50   0.04   59.9    95    2.2   299     3.6   1013.7    0.00 
 188    6:00   0.05   60.0    95    4.0   303     9.1   1013.8    0.00 
 188    6:10   0.07   60.1    94    6.9   307     9.3   1014.0    0.00 
 188    6:20   0.05   59.9    94    5.7   298     7.9   1014.0    0.00 
 188    6:30   0.15   59.9    93    5.3   301     8.0   1014.1    0.00 
 188    6:40   0.14   60.6    93    4.8   312     8.4   1014.2    0.00 
 188    6:50   0.19   61.3    92    5.1   301     9.2   1014.2    0.00 
 188    7:00   0.16   61.6    90    7.1   296    10.5   1014.3    0.00 
 188    7:10   0.21   61.6    90    6.8   294     9.5   1014.3    0.00 
 188    7:20   0.32   62.6    88    6.9   301    11.5   1014.1    0.00 
 188    7:30   0.36   63.4    84    7.5   278    10.0   1013.9    0.00 
 188    7:40   0.39   63.0    84    7.5   271     9.3   1013.8    0.00 
 188    7:50   0.42   63.0    84    6.1   270     8.3   1013.7    0.00 
 188    8:00   0.45   63.5    83    4.9   270     6.8   1013.6    0.00 
 188    8:10   0.46   63.7    82    4.7   276     7.1   1013.5    0.00 
 188    8:20   0.51   63.9    83    6.5   282    10.4   1013.4    0.00 
 188    8:30   0.46   63.8    83    5.7   285     8.0   1013.4    0.00 
 188    8:40   0.43   63.6    84    6.0   285     9.3   1013.4    0.00 
 188    8:50   0.48   63.5    84    6.8   282     9.6   1013.3    0.00 
 188    9:00   0.65   63.9    84    8.3   288    13.2   1013.4    0.00 
 188    9:10   0.56   64.4    82   10.5   296    14.6   1013.4    0.00 
 188    9:20   0.60   65.1    80   13.8   295    19.3   1013.4    0.00 

Return to Norris Rancho Marino Reserve graphs page.


Western Regional Climate Center,wrcc@dri.edu